createdAt,value
2023-04-19T00:01:53.801Z,102050.41
2023-04-19T00:06:56.989Z,102041.69
2023-04-19T00:11:59.508Z,102042.41
2023-04-19T00:17:02.093Z,102037.31
2023-04-19T00:22:04.647Z,102033.66
2023-04-19T00:27:07.168Z,102026.69
2023-04-19T00:32:09.773Z,102023.28
2023-04-19T00:37:12.460Z,102010.09
2023-04-19T00:42:15.061Z,102008.25
2023-04-19T00:47:17.820Z,102009.59
2023-04-19T00:52:22.412Z,102012.06
2023-04-19T00:57:25.547Z,101993.00
2023-04-19T01:02:28.862Z,101997.38
2023-04-19T01:07:34.184Z,101988.19
2023-04-19T01:12:36.908Z,101990.88
2023-04-19T01:17:39.792Z,101985.66
2023-04-19T01:22:42.411Z,101980.63
2023-04-19T01:27:45.146Z,101983.72
2023-04-19T01:32:47.773Z,101981.63
2023-04-19T01:37:50.894Z,101984.91
2023-04-19T01:42:53.620Z,101982.56
2023-04-19T01:47:56.822Z,101988.50
2023-04-19T01:52:59.774Z,101984.91
2023-04-19T01:58:02.479Z,101985.16
2023-04-19T02:03:05.321Z,101999.81
2023-04-19T02:08:07.900Z,101993.13
2023-04-19T02:13:10.568Z,101992.53
2023-04-19T02:18:13.657Z,101996.81
2023-04-19T02:23:16.252Z,101996.72
2023-04-19T02:28:18.823Z,101991.69
2023-04-19T02:33:23.457Z,101990.28
2023-04-19T02:38:25.978Z,101990.16
2023-04-19T02:43:29.464Z,101978.59
2023-04-19T02:48:32.078Z,101986.81
2023-04-19T02:53:34.955Z,101976.03
2023-04-19T02:58:37.661Z,101979.84
2023-04-19T03:03:42.011Z,101984.13
2023-04-19T03:08:44.809Z,101979.47
2023-04-19T03:13:47.693Z,101979.47
2023-04-19T03:18:50.667Z,101983.19
2023-04-19T03:23:57.701Z,101978.94
2023-04-19T03:29:01.637Z,101967.75
2023-04-19T03:34:18.245Z,101971.63
2023-04-19T03:39:23.773Z,101965.38
2023-04-19T03:44:33.401Z,101963.72
2023-04-19T03:49:39.172Z,101960.03
2023-04-19T03:54:42.412Z,101954.22
2023-04-19T03:59:55.276Z,101951.59
2023-04-19T04:04:59.133Z,101958.66
2023-04-19T04:10:01.881Z,101952.72
2023-04-19T04:15:10.170Z,101943.03
2023-04-19T04:20:18.332Z,101956.94
2023-04-19T04:25:23.192Z,101956.31
2023-04-19T04:30:28.012Z,101956.16
2023-04-19T04:35:33.118Z,101948.06
2023-04-19T04:40:43.834Z,101950.72
2023-04-19T04:45:46.473Z,101949.41
2023-04-19T04:50:49.580Z,101941.84
2023-04-19T04:55:54.316Z,101945.59
2023-04-19T05:00:57.013Z,101942.84
2023-04-19T05:06:00.699Z,101936.19
2023-04-19T05:11:05.816Z,101942.69
2023-04-19T05:16:08.877Z,101941.88
2023-04-19T05:21:11.920Z,101937.13
2023-04-19T05:26:16.366Z,101938.44
2023-04-19T05:31:21.321Z,101921.88
2023-04-19T05:36:44.778Z,101938.34
2023-04-19T05:41:47.971Z,101928.47
2023-04-19T05:46:50.933Z,101924.56
2023-04-19T05:52:07.497Z,101922.50
2023-04-19T05:57:16.345Z,101913.69
2023-04-19T06:02:19.320Z,101917.91
2023-04-19T06:12:29.807Z,101899.84
2023-04-19T06:17:32.484Z,101909.72
2023-04-19T06:22:35.130Z,101910.47
2023-04-19T06:27:37.908Z,101909.44
2023-04-19T06:32:40.660Z,101903.41
2023-04-19T06:37:43.278Z,101894.97
2023-04-19T06:42:46.251Z,101901.69
2023-04-19T06:47:48.879Z,101897.50
2023-04-19T06:52:51.656Z,101887.47
2023-04-19T06:57:58.066Z,101890.19
2023-04-19T07:03:02.139Z,101884.19
2023-04-19T07:08:05.000Z,101885.44
2023-04-19T07:13:07.715Z,101869.44
2023-04-19T07:18:11.406Z,101871.66
2023-04-19T07:23:13.857Z,101872.56
2023-04-19T07:28:16.479Z,101855.59
2023-04-19T07:33:19.329Z,101852.25
2023-04-19T07:38:22.189Z,101857.00
2023-04-19T07:43:24.868Z,101847.72
2023-04-19T07:48:27.550Z,101848.25
2023-04-19T07:53:31.073Z,101852.44
2023-04-19T07:58:33.746Z,101848.88
2023-04-19T08:03:37.282Z,101851.38
2023-04-19T08:08:39.908Z,101844.06
2023-04-19T08:13:48.421Z,101851.41
2023-04-19T08:18:58.764Z,101848.50
2023-04-19T08:24:01.837Z,101841.94
2023-04-19T08:29:04.469Z,101840.16
2023-04-19T08:34:07.104Z,101840.59
2023-04-19T08:39:17.727Z,101829.81
2023-04-19T08:44:36.480Z,101813.00
2023-04-19T08:49:43.287Z,101812.41
2023-04-19T08:54:46.962Z,101802.97
2023-04-19T08:59:55.701Z,101797.81
2023-04-19T09:04:58.890Z,101793.25
2023-04-19T09:10:07.870Z,101793.50
2023-04-19T09:15:11.579Z,101791.75
2023-04-19T09:20:14.419Z,101789.00
2023-04-19T09:25:49.285Z,101788.84
2023-04-19T09:31:06.693Z,101778.63
2023-04-19T09:36:34.206Z,101775.63
2023-04-19T09:41:52.979Z,101768.19
2023-04-19T09:46:56.920Z,101770.75
2023-04-19T09:51:59.658Z,101760.19
2023-04-19T09:57:02.964Z,101758.53
2023-04-19T10:02:07.353Z,101759.53
2023-04-19T10:17:25.067Z,101748.16
2023-04-19T10:22:28.609Z,101744.78
2023-04-19T10:27:35.173Z,101746.50
2023-04-19T10:43:21.303Z,101731.91
2023-04-19T10:54:00.098Z,101727.47
2023-04-19T11:04:43.774Z,101722.34
2023-04-19T11:09:47.549Z,101729.13
2023-04-19T11:20:09.597Z,101716.97
2023-04-19T11:25:19.263Z,101726.56
2023-04-19T11:30:29.488Z,101726.84
2023-04-19T11:35:32.902Z,101715.38
2023-04-19T11:40:37.589Z,101709.41
2023-04-19T11:45:40.565Z,101710.56
2023-04-19T11:50:44.883Z,101708.16
2023-04-19T11:55:51.349Z,101709.53
2023-04-19T12:00:54.138Z,101708.66
2023-04-19T12:05:58.305Z,101705.47
2023-04-19T12:11:02.757Z,101721.44
2023-04-19T12:16:05.550Z,101695.44
2023-04-19T12:21:08.084Z,101703.47
2023-04-19T12:26:11.641Z,101696.94
2023-04-19T12:31:14.290Z,101693.31
2023-04-19T12:36:16.949Z,101686.09
2023-04-19T12:41:19.506Z,101682.97
2023-04-19T13:49:16.012Z,101655.84
2023-04-19T13:54:20.090Z,101659.44
2023-04-19T13:59:26.156Z,101660.13
2023-04-19T14:04:28.983Z,101647.13
2023-04-19T14:09:31.873Z,101644.53
2023-04-19T14:14:34.854Z,101643.44
2023-04-19T14:19:38.042Z,101645.75
2023-04-19T14:24:40.627Z,101632.50
2023-04-19T14:29:43.202Z,101636.47
2023-04-19T14:34:46.043Z,101645.81
2023-04-19T14:39:51.814Z,101635.28
2023-04-19T14:44:54.513Z,101636.72
2023-04-19T14:49:57.446Z,101634.13
2023-04-19T14:55:00.293Z,101625.44
2023-04-19T15:00:03.036Z,101612.97
2023-04-19T15:05:10.586Z,101615.19
2023-04-19T15:10:13.689Z,101610.19
2023-04-19T15:15:16.926Z,101608.91
2023-04-19T15:20:19.704Z,101608.09
2023-04-19T15:25:22.416Z,101595.03
2023-04-19T15:30:25.090Z,101594.38
2023-04-19T15:35:27.714Z,101590.13
2023-04-19T15:40:30.642Z,101593.50
2023-04-19T15:45:33.329Z,101596.56
2023-04-19T15:50:37.467Z,101592.72
2023-04-19T15:55:41.519Z,101588.53
2023-04-19T16:00:45.281Z,101586.41
2023-04-19T16:05:51.656Z,101588.91
2023-04-19T16:10:54.500Z,101587.84
2023-04-19T16:15:57.480Z,101584.97
2023-04-19T16:21:00.392Z,101592.81
2023-04-19T16:26:03.384Z,101596.72
2023-04-19T16:31:06.165Z,101603.47
2023-04-19T16:36:09.045Z,101598.84
2023-04-19T16:41:12.062Z,101613.03
2023-04-19T16:46:15.405Z,101615.97
2023-04-19T16:51:19.124Z,101620.50
2023-04-19T16:56:22.243Z,101623.13
2023-04-19T17:01:24.975Z,101627.00
2023-04-19T17:06:27.978Z,101626.31
2023-04-19T17:11:32.677Z,101631.38
2023-04-19T17:16:35.632Z,101632.91
2023-04-19T17:21:38.374Z,101630.84
2023-04-19T17:26:41.111Z,101622.00
2023-04-19T17:31:44.020Z,101627.78
2023-04-19T17:36:46.645Z,101624.47
2023-04-19T17:41:49.331Z,101621.75
2023-04-19T17:46:54.832Z,101626.28
2023-04-19T17:51:58.133Z,101628.25
2023-04-19T17:57:02.723Z,101634.91
2023-04-19T18:02:06.633Z,101625.56
2023-04-19T18:07:10.564Z,101630.72
2023-04-19T18:12:13.248Z,101635.19
2023-04-19T18:17:15.976Z,101635.09
2023-04-19T18:22:18.556Z,101636.81
2023-04-19T18:27:21.414Z,101631.66
2023-04-19T18:32:27.205Z,101627.75
2023-04-19T18:37:36.347Z,101640.06
2023-04-19T18:42:39.014Z,101626.91
2023-04-19T18:47:42.228Z,101636.00
2023-04-19T18:52:45.079Z,101639.03
2023-04-19T18:57:47.651Z,101625.56
2023-04-19T19:02:51.135Z,101632.31
2023-04-19T19:07:54.079Z,101634.88
2023-04-19T19:12:56.817Z,101639.88
2023-04-19T19:18:01.618Z,101647.78
2023-04-19T19:23:06.154Z,101646.03
2023-04-19T19:28:10.199Z,101651.72
2023-04-19T19:33:13.477Z,101649.50
2023-04-19T19:38:16.863Z,101647.88
2023-04-19T19:43:19.446Z,101646.13
2023-04-19T19:48:22.279Z,101632.78
2023-04-19T19:53:26.019Z,101641.88
2023-04-19T19:58:48.413Z,101635.84
2023-04-19T20:03:52.048Z,101647.34
2023-04-19T20:08:57.453Z,101640.63
2023-04-19T20:14:00.175Z,101653.50
2023-04-19T20:19:09.776Z,101666.03
2023-04-19T20:24:13.384Z,101657.16
2023-04-19T20:29:16.361Z,101638.44
2023-04-19T20:34:19.152Z,101641.13
2023-04-19T20:39:21.791Z,101612.44
2023-04-19T20:44:24.625Z,101602.47
2023-04-19T20:49:27.263Z,101615.72
2023-04-19T20:54:30.353Z,101621.28
2023-04-19T20:59:33.217Z,101601.91
2023-04-19T21:04:36.224Z,101608.19
2023-04-19T21:09:39.005Z,101609.13
2023-04-19T21:14:41.531Z,101601.13
2023-04-19T21:19:44.263Z,101592.97
2023-04-19T21:24:46.771Z,101586.81
2023-04-19T21:29:49.282Z,101581.59
2023-04-19T21:34:51.883Z,101589.84
2023-04-19T21:39:54.826Z,101569.22
2023-04-19T21:44:58.187Z,101574.06
2023-04-19T21:50:00.868Z,101569.78
2023-04-19T21:55:04.005Z,101563.97
2023-04-19T22:00:09.806Z,101560.94
2023-04-19T22:05:24.175Z,101547.63
2023-04-19T22:10:27.441Z,101540.44
2023-04-19T22:15:30.049Z,101533.81
2023-04-19T22:20:33.843Z,101526.06
2023-04-19T22:25:36.551Z,101524.41
2023-04-19T22:30:39.093Z,101519.44
2023-04-19T22:35:41.692Z,101512.13
2023-04-19T22:40:44.248Z,101516.22
2023-04-19T22:45:48.100Z,101512.03
2023-04-19T22:50:52.769Z,101515.41
2023-04-19T22:55:55.976Z,101510.19
2023-04-19T23:00:58.586Z,101510.53
2023-04-19T23:06:03.622Z,101497.19
2023-04-19T23:11:06.517Z,101497.41
2023-04-19T23:16:12.205Z,101499.84
2023-04-19T23:21:14.783Z,101499.75
2023-04-19T23:26:17.286Z,101494.88
2023-04-19T23:31:19.884Z,101494.78
2023-04-19T23:36:22.500Z,101494.88
2023-04-19T23:41:25.071Z,101505.06
2023-04-19T23:46:27.796Z,101484.09
2023-04-19T23:51:30.933Z,101473.56
2023-04-19T23:56:33.614Z,101455.25
